sensor_id;sensor_type;location;lat;lon;timestamp;P1;durP1;ratioP1;P2;durP2;ratioP2
57923;SDS011;43737;50.632;3.070;2022-07-04T00:00:09;4.18;;;1.30;;
57923;SDS011;43737;50.632;3.070;2022-07-04T00:02:36;7.22;;;1.45;;
57923;SDS011;43737;50.632;3.070;2022-07-04T00:05:03;5.75;;;1.30;;
57923;SDS011;43737;50.632;3.070;2022-07-04T00:07:29;6.53;;;1.42;;
57923;SDS011;43737;50.632;3.070;2022-07-04T00:09:55;9.40;;;1.90;;
57923;SDS011;43737;50.632;3.070;2022-07-04T00:12:21;8.57;;;1.90;;
57923;SDS011;43737;50.632;3.070;2022-07-04T00:14:47;6.85;;;1.75;;
57923;SDS011;43737;50.632;3.070;2022-07-04T00:17:13;7.97;;;1.80;;
57923;SDS011;43737;50.632;3.070;2022-07-04T00:19:39;5.43;;;1.90;;
57923;SDS011;43737;50.632;3.070;2022-07-04T00:22:05;10.90;;;2.30;;
57923;SDS011;43737;50.632;3.070;2022-07-04T00:24:31;7.72;;;1.95;;
57923;SDS011;43737;50.632;3.070;2022-07-04T00:26:57;6.90;;;1.95;;
57923;SDS011;43737;50.632;3.070;2022-07-04T00:29:23;6.03;;;1.45;;
57923;SDS011;43737;50.632;3.070;2022-07-04T00:31:49;3.08;;;1.42;;
57923;SDS011;43737;50.632;3.070;2022-07-04T00:34:15;6.55;;;2.03;;
57923;SDS011;43737;50.632;3.070;2022-07-04T00:36:41;13.00;;;2.55;;
57923;SDS011;43737;50.632;3.070;2022-07-04T00:39:07;6.72;;;2.00;;
57923;SDS011;43737;50.632;3.070;2022-07-04T00:41:33;9.82;;;2.20;;
57923;SDS011;43737;50.632;3.070;2022-07-04T00:44:09;5.97;;;1.60;;
57923;SDS011;43737;50.632;3.070;2022-07-04T00:46:36;4.20;;;1.20;;
57923;SDS011;43737;50.632;3.070;2022-07-04T00:49:05;11.45;;;2.08;;
57923;SDS011;43737;50.632;3.070;2022-07-04T00:51:32;8.88;;;1.60;;
57923;SDS011;43737;50.632;3.070;2022-07-04T00:53:58;7.90;;;1.95;;
57923;SDS011;43737;50.632;3.070;2022-07-04T00:56:24;5.75;;;1.38;;
57923;SDS011;43737;50.632;3.070;2022-07-04T00:58:51;11.70;;;1.55;;
57923;SDS011;43737;50.632;3.070;2022-07-04T01:01:18;6.25;;;1.60;;
57923;SDS011;43737;50.632;3.070;2022-07-04T01:03:45;8.93;;;1.92;;
57923;SDS011;43737;50.632;3.070;2022-07-04T01:06:11;7.60;;;1.55;;
57923;SDS011;43737;50.632;3.070;2022-07-04T01:08:37;11.40;;;2.13;;
57923;SDS011;43737;50.632;3.070;2022-07-04T01:11:05;6.72;;;1.60;;
57923;SDS011;43737;50.632;3.070;2022-07-04T01:13:31;8.77;;;1.95;;
57923;SDS011;43737;50.632;3.070;2022-07-04T01:15:57;11.15;;;2.08;;
57923;SDS011;43737;50.632;3.070;2022-07-04T01:18:23;12.57;;;2.08;;
57923;SDS011;43737;50.632;3.070;2022-07-04T01:20:49;9.15;;;2.10;;
57923;SDS011;43737;50.632;3.070;2022-07-04T01:23:15;4.85;;;1.80;;
57923;SDS011;43737;50.632;3.070;2022-07-04T01:25:41;9.07;;;2.15;;
57923;SDS011;43737;50.632;3.070;2022-07-04T01:28:07;7.22;;;2.00;;
57923;SDS011;43737;50.632;3.070;2022-07-04T01:30:34;13.40;;;2.78;;
57923;SDS011;43737;50.632;3.070;2022-07-04T01:33:01;6.78;;;1.88;;
57923;SDS011;43737;50.632;3.070;2022-07-04T01:35:27;11.30;;;2.55;;
57923;SDS011;43737;50.632;3.070;2022-07-04T01:37:53;10.48;;;2.63;;
57923;SDS011;43737;50.632;3.070;2022-07-04T01:40:19;11.80;;;2.83;;
57923;SDS011;43737;50.632;3.070;2022-07-04T01:42:45;7.63;;;2.05;;
57923;SDS011;43737;50.632;3.070;2022-07-04T01:45:11;8.95;;;2.67;;
57923;SDS011;43737;50.632;3.070;2022-07-04T01:47:37;11.23;;;2.88;;
57923;SDS011;43737;50.632;3.070;2022-07-04T01:50:04;12.10;;;2.38;;
57923;SDS011;43737;50.632;3.070;2022-07-04T01:52:30;6.43;;;2.70;;
57923;SDS011;43737;50.632;3.070;2022-07-04T01:54:57;15.43;;;3.08;;
57923;SDS011;43737;50.632;3.070;2022-07-04T01:57:23;9.65;;;3.50;;
57923;SDS011;43737;50.632;3.070;2022-07-04T01:59:49;12.13;;;3.92;;
57923;SDS011;43737;50.632;3.070;2022-07-04T02:02:48;10.35;;;3.53;;
57923;SDS011;43737;50.632;3.070;2022-07-04T02:05:14;10.35;;;3.65;;
57923;SDS011;43737;50.632;3.070;2022-07-04T02:07:41;14.45;;;3.67;;
57923;SDS011;43737;50.632;3.070;2022-07-04T02:10:07;15.68;;;4.13;;
57923;SDS011;43737;50.632;3.070;2022-07-04T02:12:33;13.65;;;3.28;;
57923;SDS011;43737;50.632;3.070;2022-07-04T02:15:18;14.70;;;4.18;;
57923;SDS011;43737;50.632;3.070;2022-07-04T02:17:44;10.07;;;3.25;;
57923;SDS011;43737;50.632;3.070;2022-07-04T02:20:10;17.02;;;4.38;;
57923;SDS011;43737;50.632;3.070;2022-07-04T02:22:36;14.57;;;3.97;;
57923;SDS011;43737;50.632;3.070;2022-07-04T02:25:03;11.85;;;3.80;;
57923;SDS011;43737;50.632;3.070;2022-07-04T02:27:29;12.98;;;3.95;;
57923;SDS011;43737;50.632;3.070;2022-07-04T02:29:55;12.20;;;3.80;;
57923;SDS011;43737;50.632;3.070;2022-07-04T02:32:21;11.82;;;3.78;;
57923;SDS011;43737;50.632;3.070;2022-07-04T02:34:47;16.67;;;3.65;;
57923;SDS011;43737;50.632;3.070;2022-07-04T02:37:13;17.60;;;4.50;;
57923;SDS011;43737;50.632;3.070;2022-07-04T02:39:39;12.38;;;3.95;;
57923;SDS011;43737;50.632;3.070;2022-07-04T02:42:05;12.63;;;3.80;;
57923;SDS011;43737;50.632;3.070;2022-07-04T02:44:31;17.45;;;4.20;;
57923;SDS011;43737;50.632;3.070;2022-07-04T02:46:57;16.40;;;4.32;;
57923;SDS011;43737;50.632;3.070;2022-07-04T02:49:25;19.63;;;4.50;;
57923;SDS011;43737;50.632;3.070;2022-07-04T02:51:51;13.23;;;3.47;;
57923;SDS011;43737;50.632;3.070;2022-07-04T02:54:17;17.00;;;4.07;;
57923;SDS011;43737;50.632;3.070;2022-07-04T02:56:43;23.55;;;5.22;;
57923;SDS011;43737;50.632;3.070;2022-07-04T02:59:09;16.13;;;4.10;;
57923;SDS011;43737;50.632;3.070;2022-07-04T03:01:35;9.07;;;3.70;;
57923;SDS011;43737;50.632;3.070;2022-07-04T03:04:01;13.13;;;4.32;;
57923;SDS011;43737;50.632;3.070;2022-07-04T03:06:28;13.93;;;4.40;;
57923;SDS011;43737;50.632;3.070;2022-07-04T03:08:55;10.95;;;4.38;;
57923;SDS011;43737;50.632;3.070;2022-07-04T03:11:21;23.17;;;4.88;;
57923;SDS011;43737;50.632;3.070;2022-07-04T03:13:47;17.90;;;5.20;;
57923;SDS011;43737;50.632;3.070;2022-07-04T03:16:13;13.05;;;4.47;;
57923;SDS011;43737;50.632;3.070;2022-07-04T03:18:39;17.58;;;4.47;;
57923;SDS011;43737;50.632;3.070;2022-07-04T03:21:05;15.27;;;5.32;;
57923;SDS011;43737;50.632;3.070;2022-07-04T03:23:31;15.80;;;4.13;;
57923;SDS011;43737;50.632;3.070;2022-07-04T03:25:57;13.75;;;4.80;;
57923;SDS011;43737;50.632;3.070;2022-07-04T03:28:23;24.48;;;5.45;;
57923;SDS011;43737;50.632;3.070;2022-07-04T03:30:50;15.25;;;4.38;;
57923;SDS011;43737;50.632;3.070;2022-07-04T03:33:15;15.57;;;4.40;;
57923;SDS011;43737;50.632;3.070;2022-07-04T03:35:41;14.48;;;3.90;;
57923;SDS011;43737;50.632;3.070;2022-07-04T03:38:07;10.23;;;3.42;;
57923;SDS011;43737;50.632;3.070;2022-07-04T03:40:33;11.02;;;3.55;;
57923;SDS011;43737;50.632;3.070;2022-07-04T03:43:01;12.52;;;3.58;;
57923;SDS011;43737;50.632;3.070;2022-07-04T03:45:27;10.40;;;3.80;;
57923;SDS011;43737;50.632;3.070;2022-07-04T03:47:53;12.73;;;4.00;;
57923;SDS011;43737;50.632;3.070;2022-07-04T03:50:19;11.73;;;4.03;;
57923;SDS011;43737;50.632;3.070;2022-07-04T03:52:45;10.98;;;4.78;;
57923;SDS011;43737;50.632;3.070;2022-07-04T03:55:11;13.40;;;3.95;;
57923;SDS011;43737;50.632;3.070;2022-07-04T03:57:38;12.38;;;4.63;;
57923;SDS011;43737;50.632;3.070;2022-07-04T04:00:04;11.98;;;4.78;;
57923;SDS011;43737;50.632;3.070;2022-07-04T04:02:30;11.23;;;4.75;;
57923;SDS011;43737;50.632;3.070;2022-07-04T04:04:56;16.83;;;5.32;;
57923;SDS011;43737;50.632;3.070;2022-07-04T04:07:41;18.13;;;5.53;;
57923;SDS011;43737;50.632;3.070;2022-07-04T04:10:09;13.00;;;5.07;;
57923;SDS011;43737;50.632;3.070;2022-07-04T04:12:35;15.45;;;5.65;;
57923;SDS011;43737;50.632;3.070;2022-07-04T04:15:01;18.15;;;5.93;;
57923;SDS011;43737;50.632;3.070;2022-07-04T04:17:27;14.05;;;6.72;;
57923;SDS011;43737;50.632;3.070;2022-07-04T04:19:53;22.05;;;6.85;;
57923;SDS011;43737;50.632;3.070;2022-07-04T04:22:19;17.80;;;6.78;;
57923;SDS011;43737;50.632;3.070;2022-07-04T04:24:45;19.70;;;7.15;;
57923;SDS011;43737;50.632;3.070;2022-07-04T04:27:11;17.65;;;6.78;;
57923;SDS011;43737;50.632;3.070;2022-07-04T04:29:37;18.15;;;6.70;;
57923;SDS011;43737;50.632;3.070;2022-07-04T04:32:03;22.60;;;7.15;;
57923;SDS011;43737;50.632;3.070;2022-07-04T04:34:29;24.48;;;7.43;;
57923;SDS011;43737;50.632;3.070;2022-07-04T04:36:56;18.73;;;7.18;;
57923;SDS011;43737;50.632;3.070;2022-07-04T04:39:22;17.77;;;6.80;;
57923;SDS011;43737;50.632;3.070;2022-07-04T04:41:48;12.48;;;6.47;;
57923;SDS011;43737;50.632;3.070;2022-07-04T04:44:13;17.73;;;6.65;;
57923;SDS011;43737;50.632;3.070;2022-07-04T04:46:40;18.80;;;7.38;;
57923;SDS011;43737;50.632;3.070;2022-07-04T04:49:06;16.23;;;6.95;;
57923;SDS011;43737;50.632;3.070;2022-07-04T04:51:32;22.40;;;8.00;;
57923;SDS011;43737;50.632;3.070;2022-07-04T04:53:58;22.05;;;7.07;;
57923;SDS011;43737;50.632;3.070;2022-07-04T04:56:24;19.65;;;6.00;;
57923;SDS011;43737;50.632;3.070;2022-07-04T04:58:50;15.93;;;6.53;;
57923;SDS011;43737;50.632;3.070;2022-07-04T05:01:16;17.63;;;7.25;;
57923;SDS011;43737;50.632;3.070;2022-07-04T05:03:42;16.17;;;6.40;;
57923;SDS011;43737;50.632;3.070;2022-07-04T05:06:08;19.27;;;6.50;;
57923;SDS011;43737;50.632;3.070;2022-07-04T05:08:34;14.40;;;5.70;;
57923;SDS011;43737;50.632;3.070;2022-07-04T05:11:00;10.27;;;5.32;;
57923;SDS011;43737;50.632;3.070;2022-07-04T05:13:26;18.45;;;6.90;;
57923;SDS011;43737;50.632;3.070;2022-07-04T05:15:55;16.75;;;7.10;;
57923;SDS011;43737;50.632;3.070;2022-07-04T05:18:21;17.13;;;6.47;;
57923;SDS011;43737;50.632;3.070;2022-07-04T05:20:46;17.88;;;7.07;;
57923;SDS011;43737;50.632;3.070;2022-07-04T05:23:14;20.20;;;8.15;;
57923;SDS011;43737;50.632;3.070;2022-07-04T05:25:40;26.20;;;7.45;;
57923;SDS011;43737;50.632;3.070;2022-07-04T05:28:06;13.90;;;7.35;;
57923;SDS011;43737;50.632;3.070;2022-07-04T05:30:32;18.33;;;7.15;;
57923;SDS011;43737;50.632;3.070;2022-07-04T05:32:58;16.48;;;6.70;;
57923;SDS011;43737;50.632;3.070;2022-07-04T05:35:25;20.77;;;7.68;;
57923;SDS011;43737;50.632;3.070;2022-07-04T05:37:52;19.88;;;7.03;;
57923;SDS011;43737;50.632;3.070;2022-07-04T05:40:18;19.38;;;7.20;;
57923;SDS011;43737;50.632;3.070;2022-07-04T05:42:46;19.77;;;6.80;;
57923;SDS011;43737;50.632;3.070;2022-07-04T05:45:13;12.13;;;5.88;;
57923;SDS011;43737;50.632;3.070;2022-07-04T05:47:39;14.85;;;7.00;;
57923;SDS011;43737;50.632;3.070;2022-07-04T05:50:05;12.80;;;5.90;;
57923;SDS011;43737;50.632;3.070;2022-07-04T05:52:31;13.90;;;6.28;;
57923;SDS011;43737;50.632;3.070;2022-07-04T05:54:57;13.68;;;5.50;;
57923;SDS011;43737;50.632;3.070;2022-07-04T05:57:23;22.17;;;6.85;;
57923;SDS011;43737;50.632;3.070;2022-07-04T05:59:49;20.60;;;6.07;;
57923;SDS011;43737;50.632;3.070;2022-07-04T06:02:15;15.57;;;6.70;;
57923;SDS011;43737;50.632;3.070;2022-07-04T06:04:42;12.88;;;5.05;;
57923;SDS011;43737;50.632;3.070;2022-07-04T06:07:10;25.98;;;8.52;;
57923;SDS011;43737;50.632;3.070;2022-07-04T06:09:36;19.60;;;7.35;;
57923;SDS011;43737;50.632;3.070;2022-07-04T06:12:03;13.73;;;6.88;;
57923;SDS011;43737;50.632;3.070;2022-07-04T06:14:29;21.23;;;6.93;;
57923;SDS011;43737;50.632;3.070;2022-07-04T06:16:55;14.95;;;6.75;;
57923;SDS011;43737;50.632;3.070;2022-07-04T06:19:21;20.65;;;6.72;;
57923;SDS011;43737;50.632;3.070;2022-07-04T06:21:47;18.55;;;6.65;;
57923;SDS011;43737;50.632;3.070;2022-07-04T06:24:13;18.73;;;6.82;;
57923;SDS011;43737;50.632;3.070;2022-07-04T06:26:40;21.23;;;6.38;;
57923;SDS011;43737;50.632;3.070;2022-07-04T06:29:06;18.65;;;8.25;;
57923;SDS011;43737;50.632;3.070;2022-07-04T06:31:32;24.00;;;8.20;;
57923;SDS011;43737;50.632;3.070;2022-07-04T06:33:58;18.05;;;6.55;;
57923;SDS011;43737;50.632;3.070;2022-07-04T06:36:42;19.42;;;6.65;;
57923;SDS011;43737;50.632;3.070;2022-07-04T06:39:08;14.32;;;6.57;;
57923;SDS011;43737;50.632;3.070;2022-07-04T06:41:35;18.73;;;6.53;;
57923;SDS011;43737;50.632;3.070;2022-07-04T06:44:01;13.48;;;6.10;;
57923;SDS011;43737;50.632;3.070;2022-07-04T06:46:27;16.70;;;6.32;;
57923;SDS011;43737;50.632;3.070;2022-07-04T06:48:53;19.30;;;7.35;;
57923;SDS011;43737;50.632;3.070;2022-07-04T06:51:22;14.20;;;7.70;;
57923;SDS011;43737;50.632;3.070;2022-07-04T06:53:49;24.52;;;8.38;;
57923;SDS011;43737;50.632;3.070;2022-07-04T06:56:15;21.52;;;8.57;;
57923;SDS011;43737;50.632;3.070;2022-07-04T06:58:42;22.17;;;6.68;;
57923;SDS011;43737;50.632;3.070;2022-07-04T07:01:08;15.55;;;7.38;;
57923;SDS011;43737;50.632;3.070;2022-07-04T07:03:34;22.90;;;7.03;;
57923;SDS011;43737;50.632;3.070;2022-07-04T07:06:00;11.88;;;6.45;;
57923;SDS011;43737;50.632;3.070;2022-07-04T07:08:27;18.80;;;6.88;;
57923;SDS011;43737;50.632;3.070;2022-07-04T07:10:53;18.23;;;7.03;;
57923;SDS011;43737;50.632;3.070;2022-07-04T07:13:19;15.25;;;7.22;;
57923;SDS011;43737;50.632;3.070;2022-07-04T07:15:45;16.10;;;7.63;;
57923;SDS011;43737;50.632;3.070;2022-07-04T07:18:11;18.67;;;6.90;;
57923;SDS011;43737;50.632;3.070;2022-07-04T07:20:37;15.27;;;6.43;;
57923;SDS011;43737;50.632;3.070;2022-07-04T07:23:04;16.42;;;5.88;;
57923;SDS011;43737;50.632;3.070;2022-07-04T07:25:30;14.43;;;6.43;;
57923;SDS011;43737;50.632;3.070;2022-07-04T07:27:56;18.20;;;5.75;;
57923;SDS011;43737;50.632;3.070;2022-07-04T07:30:22;17.85;;;6.65;;
57923;SDS011;43737;50.632;3.070;2022-07-04T07:32:48;14.80;;;5.53;;
57923;SDS011;43737;50.632;3.070;2022-07-04T07:35:14;14.40;;;6.40;;
57923;SDS011;43737;50.632;3.070;2022-07-04T07:37:41;17.15;;;4.70;;
57923;SDS011;43737;50.632;3.070;2022-07-04T07:40:07;16.58;;;5.80;;
57923;SDS011;43737;50.632;3.070;2022-07-04T07:42:33;13.50;;;5.15;;
57923;SDS011;43737;50.632;3.070;2022-07-04T07:44:59;10.02;;;4.93;;
57923;SDS011;43737;50.632;3.070;2022-07-04T07:47:25;12.88;;;4.78;;
57923;SDS011;43737;50.632;3.070;2022-07-04T07:49:51;12.20;;;4.75;;
57923;SDS011;43737;50.632;3.070;2022-07-04T07:52:17;19.95;;;5.03;;
57923;SDS011;43737;50.632;3.070;2022-07-04T07:54:43;11.15;;;4.53;;
57923;SDS011;43737;50.632;3.070;2022-07-04T07:57:09;10.45;;;4.20;;
57923;SDS011;43737;50.632;3.070;2022-07-04T07:59:35;10.57;;;3.92;;
57923;SDS011;43737;50.632;3.070;2022-07-04T08:02:01;10.75;;;4.32;;
57923;SDS011;43737;50.632;3.070;2022-07-04T08:04:27;12.23;;;4.55;;
57923;SDS011;43737;50.632;3.070;2022-07-04T08:07:00;12.70;;;4.47;;
57923;SDS011;43737;50.632;3.070;2022-07-04T08:09:26;15.13;;;4.72;;
57923;SDS011;43737;50.632;3.070;2022-07-04T08:11:52;13.00;;;4.75;;
57923;SDS011;43737;50.632;3.070;2022-07-04T08:14:18;11.77;;;4.47;;
57923;SDS011;43737;50.632;3.070;2022-07-04T08:16:44;10.52;;;4.28;;
57923;SDS011;43737;50.632;3.070;2022-07-04T08:19:10;10.88;;;4.32;;
57923;SDS011;43737;50.632;3.070;2022-07-04T08:21:36;12.38;;;5.10;;
57923;SDS011;43737;50.632;3.070;2022-07-04T08:24:02;8.95;;;3.88;;
57923;SDS011;43737;50.632;3.070;2022-07-04T08:26:28;10.07;;;5.00;;
57923;SDS011;43737;50.632;3.070;2022-07-04T08:28:54;14.60;;;4.35;;
57923;SDS011;43737;50.632;3.070;2022-07-04T08:31:22;11.45;;;4.22;;
57923;SDS011;43737;50.632;3.070;2022-07-04T08:33:49;11.60;;;5.07;;
57923;SDS011;43737;50.632;3.070;2022-07-04T08:36:15;14.35;;;5.40;;
57923;SDS011;43737;50.632;3.070;2022-07-04T08:38:41;9.57;;;5.25;;
57923;SDS011;43737;50.632;3.070;2022-07-04T08:41:07;12.40;;;4.85;;
57923;SDS011;43737;50.632;3.070;2022-07-04T08:43:33;14.65;;;4.78;;
57923;SDS011;43737;50.632;3.070;2022-07-04T08:46:02;11.10;;;3.75;;
57923;SDS011;43737;50.632;3.070;2022-07-04T08:48:29;9.85;;;4.13;;
57923;SDS011;43737;50.632;3.070;2022-07-04T08:50:56;11.30;;;3.97;;
57923;SDS011;43737;50.632;3.070;2022-07-04T08:53:25;12.00;;;4.35;;
57923;SDS011;43737;50.632;3.070;2022-07-04T08:55:52;10.93;;;3.72;;
57923;SDS011;43737;50.632;3.070;2022-07-04T08:58:37;12.30;;;3.55;;
57923;SDS011;43737;50.632;3.070;2022-07-04T09:01:04;5.93;;;3.28;;
57923;SDS011;43737;50.632;3.070;2022-07-04T09:03:32;10.57;;;3.63;;
57923;SDS011;43737;50.632;3.070;2022-07-04T09:05:58;7.65;;;4.10;;
57923;SDS011;43737;50.632;3.070;2022-07-04T09:08:24;6.97;;;3.35;;
57923;SDS011;43737;50.632;3.070;2022-07-04T09:10:51;8.23;;;3.78;;
57923;SDS011;43737;50.632;3.070;2022-07-04T09:13:18;7.78;;;3.33;;
57923;SDS011;43737;50.632;3.070;2022-07-04T09:15:45;8.30;;;3.30;;
57923;SDS011;43737;50.632;3.070;2022-07-04T09:18:25;9.27;;;2.92;;
57923;SDS011;43737;50.632;3.070;2022-07-04T09:20:55;6.28;;;3.00;;
57923;SDS011;43737;50.632;3.070;2022-07-04T09:23:23;9.13;;;3.45;;
57923;SDS011;43737;50.632;3.070;2022-07-04T09:25:49;7.57;;;3.55;;
57923;SDS011;43737;50.632;3.070;2022-07-04T09:28:31;8.48;;;3.35;;
57923;SDS011;43737;50.632;3.070;2022-07-04T09:30:57;4.57;;;2.40;;
57923;SDS011;43737;50.632;3.070;2022-07-04T09:33:42;6.97;;;2.40;;
57923;SDS011;43737;50.632;3.070;2022-07-04T09:36:15;6.22;;;2.78;;
57923;SDS011;43737;50.632;3.070;2022-07-04T09:38:41;8.45;;;2.72;;
57923;SDS011;43737;50.632;3.070;2022-07-04T09:41:08;7.43;;;3.15;;
57923;SDS011;43737;50.632;3.070;2022-07-04T09:44:04;11.60;;;2.92;;
57923;SDS011;43737;50.632;3.070;2022-07-04T09:46:30;8.52;;;2.75;;
57923;SDS011;43737;50.632;3.070;2022-07-04T09:48:56;5.85;;;3.05;;
57923;SDS011;43737;50.632;3.070;2022-07-04T09:51:42;8.23;;;3.10;;
57923;SDS011;43737;50.632;3.070;2022-07-04T09:54:15;6.70;;;2.33;;
57923;SDS011;43737;50.632;3.070;2022-07-04T09:56:42;4.72;;;2.33;;
57923;SDS011;43737;50.632;3.070;2022-07-04T09:59:08;5.97;;;2.50;;
57923;SDS011;43737;50.632;3.070;2022-07-04T10:01:34;3.40;;;2.00;;
57923;SDS011;43737;50.632;3.070;2022-07-04T10:04:01;5.15;;;2.42;;
57923;SDS011;43737;50.632;3.070;2022-07-04T10:06:30;5.82;;;2.85;;
57923;SDS011;43737;50.632;3.070;2022-07-04T10:09:05;5.50;;;2.75;;
57923;SDS011;43737;50.632;3.070;2022-07-04T10:11:34;6.32;;;2.63;;
57923;SDS011;43737;50.632;3.070;2022-07-04T10:14:01;6.28;;;2.33;;
57923;SDS011;43737;50.632;3.070;2022-07-04T10:16:28;6.20;;;2.50;;
57923;SDS011;43737;50.632;3.070;2022-07-04T10:18:55;12.40;;;3.00;;
57923;SDS011;43737;50.632;3.070;2022-07-04T10:21:21;5.63;;;2.65;;
57923;SDS011;43737;50.632;3.070;2022-07-04T10:23:49;5.32;;;2.40;;
57923;SDS011;43737;50.632;3.070;2022-07-04T10:26:20;6.43;;;2.40;;
57923;SDS011;43737;50.632;3.070;2022-07-04T10:28:46;6.53;;;1.70;;
57923;SDS011;43737;50.632;3.070;2022-07-04T10:31:13;4.18;;;1.75;;
57923;SDS011;43737;50.632;3.070;2022-07-04T10:33:39;5.70;;;2.17;;
57923;SDS011;43737;50.632;3.070;2022-07-04T10:36:22;7.30;;;2.20;;
57923;SDS011;43737;50.632;3.070;2022-07-04T10:38:57;5.10;;;1.98;;
57923;SDS011;43737;50.632;3.070;2022-07-04T10:41:24;4.72;;;2.17;;
57923;SDS011;43737;50.632;3.070;2022-07-04T10:43:51;4.32;;;2.10;;
57923;SDS011;43737;50.632;3.070;2022-07-04T10:51:18;4.25;;;1.40;;
57923;SDS011;43737;50.632;3.070;2022-07-04T10:53:58;2.05;;;1.40;;
57923;SDS011;43737;50.632;3.070;2022-07-04T10:58:56;3.30;;;1.50;;
57923;SDS011;43737;50.632;3.070;2022-07-04T11:01:22;3.50;;;1.60;;
57923;SDS011;43737;50.632;3.070;2022-07-04T11:17:03;2.60;;;1.75;;
57923;SDS011;43737;50.632;3.070;2022-07-04T11:19:29;5.43;;;1.63;;
57923;SDS011;43737;50.632;3.070;2022-07-04T11:21:55;2.60;;;1.58;;
57923;SDS011;43737;50.632;3.070;2022-07-04T11:24:22;5.05;;;1.80;;
57923;SDS011;43737;50.632;3.070;2022-07-04T11:26:48;2.97;;;1.55;;
57923;SDS011;43737;50.632;3.070;2022-07-04T11:29:14;3.00;;;1.13;;
57923;SDS011;43737;50.632;3.070;2022-07-04T11:31:41;2.95;;;1.65;;
57923;SDS011;43737;50.632;3.070;2022-07-04T11:34:08;4.55;;;1.67;;
57923;SDS011;43737;50.632;3.070;2022-07-04T11:36:34;2.75;;;1.35;;
57923;SDS011;43737;50.632;3.070;2022-07-04T11:39:01;3.50;;;1.77;;
57923;SDS011;43737;50.632;3.070;2022-07-04T11:44:13;4.63;;;1.42;;
57923;SDS011;43737;50.632;3.070;2022-07-04T11:47:09;2.95;;;1.35;;
57923;SDS011;43737;50.632;3.070;2022-07-04T11:49:35;3.28;;;1.45;;
57923;SDS011;43737;50.632;3.070;2022-07-04T11:52:01;5.57;;;1.90;;
57923;SDS011;43737;50.632;3.070;2022-07-04T11:54:28;3.40;;;1.48;;
57923;SDS011;43737;50.632;3.070;2022-07-04T11:57:07;6.80;;;2.00;;
57923;SDS011;43737;50.632;3.070;2022-07-04T11:59:34;3.45;;;1.73;;
57923;SDS011;43737;50.632;3.070;2022-07-04T12:02:09;4.88;;;1.70;;
57923;SDS011;43737;50.632;3.070;2022-07-04T12:04:36;2.47;;;1.70;;
57923;SDS011;43737;50.632;3.070;2022-07-04T12:07:08;3.80;;;1.63;;
57923;SDS011;43737;50.632;3.070;2022-07-04T12:09:34;7.63;;;2.28;;
57923;SDS011;43737;50.632;3.070;2022-07-04T12:12:00;3.90;;;1.52;;
57923;SDS011;43737;50.632;3.070;2022-07-04T12:14:27;3.60;;;1.80;;
57923;SDS011;43737;50.632;3.070;2022-07-04T12:17:09;2.63;;;1.70;;
57923;SDS011;43737;50.632;3.070;2022-07-04T12:19:35;2.55;;;1.30;;
57923;SDS011;43737;50.632;3.070;2022-07-04T12:22:01;2.17;;;1.20;;
57923;SDS011;43737;50.632;3.070;2022-07-04T12:25:19;22.00;;;3.60;;
57923;SDS011;43737;50.632;3.070;2022-07-04T12:27:35;4.88;;;1.30;;
57923;SDS011;43737;50.632;3.070;2022-07-04T12:30:18;4.22;;;1.83;;
57923;SDS011;43737;50.632;3.070;2022-07-04T12:33:26;7.65;;;1.88;;
57923;SDS011;43737;50.632;3.070;2022-07-04T12:35:55;9.18;;;2.67;;
57923;SDS011;43737;50.632;3.070;2022-07-04T12:43:49;5.15;;;1.52;;
57923;SDS011;43737;50.632;3.070;2022-07-04T12:46:32;4.72;;;2.47;;
57923;SDS011;43737;50.632;3.070;2022-07-04T12:49:01;8.95;;;2.17;;
57923;SDS011;43737;50.632;3.070;2022-07-04T12:51:28;4.90;;;1.58;;
57923;SDS011;43737;50.632;3.070;2022-07-04T12:53:55;2.25;;;1.65;;
57923;SDS011;43737;50.632;3.070;2022-07-04T12:59:15;2.80;;;1.27;;
57923;SDS011;43737;50.632;3.070;2022-07-04T13:01:43;3.20;;;1.20;;
57923;SDS011;43737;50.632;3.070;2022-07-04T13:04:09;2.45;;;1.13;;
57923;SDS011;43737;50.632;3.070;2022-07-04T13:06:35;3.30;;;1.83;;
57923;SDS011;43737;50.632;3.070;2022-07-04T13:09:03;5.72;;;1.50;;
57923;SDS011;43737;50.632;3.070;2022-07-04T13:11:29;8.73;;;2.15;;
57923;SDS011;43737;50.632;3.070;2022-07-04T13:16:40;3.00;;;1.40;;
57923;SDS011;43737;50.632;3.070;2022-07-04T13:19:06;3.58;;;1.50;;
57923;SDS011;43737;50.632;3.070;2022-07-04T13:21:32;7.38;;;3.13;;
57923;SDS011;43737;50.632;3.070;2022-07-04T13:23:58;6.05;;;1.45;;
57923;SDS011;43737;50.632;3.070;2022-07-04T13:26:24;3.85;;;1.50;;
57923;SDS011;43737;50.632;3.070;2022-07-04T13:28:50;1.95;;;1.10;;
57923;SDS011;43737;50.632;3.070;2022-07-04T13:31:17;3.08;;;1.20;;
57923;SDS011;43737;50.632;3.070;2022-07-04T13:33:43;1.77;;;1.40;;
57923;SDS011;43737;50.632;3.070;2022-07-04T13:36:09;3.63;;;1.63;;
57923;SDS011;43737;50.632;3.070;2022-07-04T13:38:35;2.38;;;1.45;;
57923;SDS011;43737;50.632;3.070;2022-07-04T13:41:01;5.10;;;1.50;;
57923;SDS011;43737;50.632;3.070;2022-07-04T13:43:28;2.45;;;1.60;;
57923;SDS011;43737;50.632;3.070;2022-07-04T13:45:56;4.13;;;1.85;;
57923;SDS011;43737;50.632;3.070;2022-07-04T13:48:23;3.10;;;1.67;;
57923;SDS011;43737;50.632;3.070;2022-07-04T13:50:52;4.38;;;1.60;;
57923;SDS011;43737;50.632;3.070;2022-07-04T13:53:18;2.97;;;1.50;;
57923;SDS011;43737;50.632;3.070;2022-07-04T13:55:45;2.92;;;1.58;;
57923;SDS011;43737;50.632;3.070;2022-07-04T13:58:11;3.50;;;1.40;;
57923;SDS011;43737;50.632;3.070;2022-07-04T14:00:37;1.55;;;1.27;;
57923;SDS011;43737;50.632;3.070;2022-07-04T14:03:05;3.45;;;1.60;;
57923;SDS011;43737;50.632;3.070;2022-07-04T14:05:32;4.78;;;1.77;;
57923;SDS011;43737;50.632;3.070;2022-07-04T14:07:58;2.88;;;1.40;;
57923;SDS011;43737;50.632;3.070;2022-07-04T14:10:25;4.97;;;1.77;;
57923;SDS011;43737;50.632;3.070;2022-07-04T14:12:51;2.92;;;1.40;;
57923;SDS011;43737;50.632;3.070;2022-07-04T14:15:17;4.60;;;1.48;;
57923;SDS011;43737;50.632;3.070;2022-07-04T14:17:43;3.03;;;1.55;;
57923;SDS011;43737;50.632;3.070;2022-07-04T14:20:09;5.50;;;1.55;;
57923;SDS011;43737;50.632;3.070;2022-07-04T14:22:36;1.85;;;1.13;;
57923;SDS011;43737;50.632;3.070;2022-07-04T14:25:02;2.83;;;1.33;;
57923;SDS011;43737;50.632;3.070;2022-07-04T14:27:28;1.83;;;1.30;;
57923;SDS011;43737;50.632;3.070;2022-07-04T14:29:54;3.05;;;1.52;;
57923;SDS011;43737;50.632;3.070;2022-07-04T14:32:20;3.20;;;1.40;;
57923;SDS011;43737;50.632;3.070;2022-07-04T14:37:55;1.42;;;1.33;;
57923;SDS011;43737;50.632;3.070;2022-07-04T14:40:29;2.92;;;1.33;;
57923;SDS011;43737;50.632;3.070;2022-07-04T14:42:59;2.83;;;1.60;;
57923;SDS011;43737;50.632;3.070;2022-07-04T14:45:30;6.55;;;1.52;;
57923;SDS011;43737;50.632;3.070;2022-07-04T14:47:59;2.45;;;1.40;;
57923;SDS011;43737;50.632;3.070;2022-07-04T14:50:28;3.00;;;1.27;;
57923;SDS011;43737;50.632;3.070;2022-07-04T14:52:54;1.90;;;1.15;;
57923;SDS011;43737;50.632;3.070;2022-07-04T14:55:23;4.22;;;1.30;;
57923;SDS011;43737;50.632;3.070;2022-07-04T14:57:49;2.88;;;1.42;;
57923;SDS011;43737;50.632;3.070;2022-07-04T15:00:18;2.25;;;1.75;;
57923;SDS011;43737;50.632;3.070;2022-07-04T15:02:44;2.20;;;1.50;;
57923;SDS011;43737;50.632;3.070;2022-07-04T15:05:12;3.08;;;1.52;;
57923;SDS011;43737;50.632;3.070;2022-07-04T15:07:38;3.00;;;1.80;;
57923;SDS011;43737;50.632;3.070;2022-07-04T15:10:05;2.22;;;1.40;;
57923;SDS011;43737;50.632;3.070;2022-07-04T15:12:34;2.08;;;1.30;;
57923;SDS011;43737;50.632;3.070;2022-07-04T15:15:01;3.78;;;1.20;;
57923;SDS011;43737;50.632;3.070;2022-07-04T15:17:27;1.70;;;1.23;;
57923;SDS011;43737;50.632;3.070;2022-07-04T15:19:53;2.05;;;1.30;;